Time;durP1;ratioP1;P1;durP2;ratioP2;P2;SDS_P1;SDS_P2;PMS_P1;PMS_P2;Temp;Humidity;BMP_temperature;BMP_pressure;BME280_temperature;BME280_humidity;BME280_pressure;Samples;Min_cycle;Max_cycle;Signal;HPM_P1;HPM_P2
2023/04/15 00:03:43;;;;;;;5.47;3.87;;;;;;;9.10;42.89;98504.81;10507027;28;20245;-73
2023/04/15 00:08:47;;;;;;;6.57;3.43;;;;;;;10.96;40.07;98529.22;10500309;28;20233;-73
2023/04/15 00:13:48;;;;;;;5.43;3.10;;;;;;;8.96;41.75;98517.34;10519367;28;20692;-73
2023/04/15 00:18:50;;;;;;;6.63;3.13;;;;;;;9.34;41.39;98539.91;10504790;28;20325;-73
2023/04/15 00:23:52;;;;;;;3.90;3.00;;;;;;;9.38;41.04;98547.31;10521412;28;20233;-73
2023/04/15 00:28:54;;;;;;;3.63;3.27;;;;;;;9.44;41.10;98542.97;10515639;28;20534;-74
2023/04/15 00:33:55;;;;;;;4.73;3.03;;;;;;;9.34;41.71;98537.25;10512011;28;20232;-73
2023/04/15 00:38:57;;;;;;;3.70;2.87;;;;;;;8.33;42.57;98469.63;10517603;28;20227;-73
2023/04/15 00:44:01;;;;;;;5.57;3.07;;;;;;;9.77;40.79;98539.44;10523384;28;20275;-73
2023/04/15 00:49:05;;;;;;;5.33;2.93;;;;;;;8.43;42.38;98504.69;10514808;28;20232;-73
2023/04/15 00:54:06;;;;;;;5.03;3.47;;;;;;;7.79;43.27;98457.94;10500537;28;20222;-73
2023/04/15 00:59:08;;;;;;;4.00;3.27;;;;;;;8.00;43.00;98497.00;10512060;28;20255;-73
2023/04/15 01:04:11;;;;;;;3.43;3.10;;;;;;;8.79;41.67;98532.88;10504293;28;20653;-73
2023/04/15 01:09:12;;;;;;;6.43;3.13;;;;;;;9.56;41.61;98525.28;10519771;28;20227;-73
2023/04/15 01:14:15;;;;;;;5.57;2.97;;;;;;;8.64;41.80;98530.41;10516414;28;20260;-73
2023/04/15 01:19:16;;;;;;;4.40;3.10;;;;;;;10.20;40.58;98538.91;10519352;28;20240;-73
2023/04/15 01:24:18;;;;;;;6.67;3.40;;;;;;;11.58;38.26;98513.22;10495269;28;20227;-73
2023/04/15 01:29:21;;;;;;;6.27;3.87;;;;;;;8.59;41.84;98502.69;10513517;28;20228;-73
2023/04/15 01:34:23;;;;;;;8.33;3.63;;;;;;;10.13;39.79;98584.38;10492865;28;20235;-73
2023/04/15 01:39:24;;;;;;;4.53;3.30;;;;;;;10.95;39.31;98570.41;10519831;28;20246;-73
2023/04/15 01:44:26;;;;;;;8.60;5.27;;;;;;;8.93;41.63;98581.78;10498549;28;20226;-73
2023/04/15 01:49:28;;;;;;;6.00;3.53;;;;;;;8.02;42.91;98502.94;10511991;28;20284;-73
2023/04/15 01:54:30;;;;;;;5.40;3.33;;;;;;;6.28;45.78;98344.03;10512098;28;20227;-73
2023/04/15 01:59:31;;;;;;;5.70;4.17;;;;;;;7.87;43.56;98558.19;10514532;28;20835;-73
2023/04/15 02:04:33;;;;;;;4.23;3.23;;;;;;;8.78;41.80;98608.59;10516540;28;20303;-73
2023/04/15 02:09:35;;;;;;;6.13;3.50;;;;;;;9.07;41.26;98622.63;10517621;28;20226;-73
2023/04/15 02:14:36;;;;;;;6.13;3.10;;;;;;;8.92;41.87;98611.31;10488489;28;20235;-72
2023/04/15 02:19:39;;;;;;;8.37;3.43;;;;;;;8.38;42.26;98603.13;10515791;28;20239;-73
2023/04/15 02:24:40;;;;;;;4.57;3.40;;;;;;;7.25;43.68;98522.53;10504448;28;20256;-73
2023/04/15 02:29:45;;;;;;;5.23;3.50;;;;;;;9.56;41.45;98581.38;10519425;28;20241;-73
2023/04/15 02:34:47;;;;;;;8.27;3.20;;;;;;;9.26;41.05;98633.53;10517444;28;20619;-73
2023/04/15 02:39:49;;;;;;;4.43;3.00;;;;;;;6.54;44.77;98436.44;10519792;28;20755;-73
2023/04/15 02:44:51;;;;;;;6.30;3.23;;;;;;;9.41;41.70;98607.47;10513945;28;20231;-72
2023/04/15 02:49:52;;;;;;;5.03;3.03;;;;;;;8.90;41.87;98638.19;10510177;28;20233;-73
2023/04/15 02:54:59;;;;;;;5.57;3.60;;;;;;;8.04;42.72;98612.78;10518789;28;20252;-73
2023/04/15 03:00:01;;;;;;;5.07;4.07;;;;;;;7.89;43.17;98609.44;10492358;28;20322;-73
2023/04/15 03:05:03;;;;;;;6.53;3.67;;;;;;;7.94;42.65;98606.19;10492355;28;20238;-73
2023/04/15 03:10:06;;;;;;;7.40;3.80;;;;;;;8.64;42.88;98629.06;10478591;28;20233;-73
2023/04/15 03:15:08;;;;;;;5.50;4.17;;;;;;;7.70;43.18;98603.75;10515076;28;20736;-73
2023/04/15 03:20:10;;;;;;;5.00;3.60;;;;;;;9.57;41.68;98598.22;10506810;28;20225;-73
2023/04/15 03:25:12;;;;;;;4.57;3.40;;;;;;;7.83;43.28;98603.03;10510322;28;20234;-73
2023/04/15 03:30:14;;;;;;;6.13;3.77;;;;;;;9.30;42.23;98619.59;10507996;28;20241;-73
2023/04/15 03:35:15;;;;;;;7.67;4.00;;;;;;;6.38;45.70;98473.88;10511225;28;20227;-73
2023/04/15 03:40:17;;;;;;;6.10;4.17;;;;;;;7.41;44.17;98607.44;10507542;28;20258;-73
2023/04/15 03:45:19;;;;;;;7.93;4.07;;;;;;;9.26;42.03;98605.00;10514986;28;20238;-73
2023/04/15 03:50:21;;;;;;;5.47;3.90;;;;;;;9.31;42.24;98609.72;10513998;28;20230;-73
2023/04/15 03:55:22;;;;;;;6.03;3.83;;;;;;;8.14;43.23;98647.09;10512690;28;20227;-73
2023/04/15 04:00:24;;;;;;;6.33;4.00;;;;;;;7.44;44.58;98632.81;10510053;28;20238;-73
2023/04/15 04:05:26;;;;;;;6.50;4.47;;;;;;;6.34;46.23;98537.19;10514588;28;20230;-73
2023/04/15 04:10:27;;;;;;;6.10;4.33;;;;;;;9.03;42.86;98614.22;10511547;28;20789;-73
2023/04/15 04:15:29;;;;;;;9.13;4.30;;;;;;;6.47;45.77;98562.31;10515007;28;20732;-73
2023/04/15 04:20:31;;;;;;;6.23;4.40;;;;;;;7.98;44.51;98632.22;10515137;28;20227;-73
2023/04/15 04:25:32;;;;;;;6.17;4.33;;;;;;;7.85;44.19;98640.97;10516927;28;20226;-73
2023/04/15 04:30:35;;;;;;;6.93;4.20;;;;;;;7.45;44.68;98651.25;10518762;28;20226;-72
2023/04/15 04:35:36;;;;;;;6.23;4.23;;;;;;;7.84;43.02;98691.72;10512871;28;20223;-73
2023/04/15 04:40:38;;;;;;;5.43;3.40;;;;;;;6.57;45.48;98627.44;10492759;28;20262;-73
2023/04/15 04:45:40;;;;;;;5.47;4.17;;;;;;;6.84;45.58;98643.72;10515904;28;20258;-73
2023/04/15 04:50:43;;;;;;;6.60;3.80;;;;;;;6.69;45.38;98646.38;10518570;28;20609;-73
2023/04/15 04:55:45;;;;;;;5.27;4.10;;;;;;;4.91;48.38;98512.56;10497634;28;20233;-73
2023/04/15 05:00:47;;;;;;;6.73;4.07;;;;;;;5.82;47.55;98604.56;10516058;28;20236;-73
2023/04/15 05:05:49;;;;;;;5.90;3.97;;;;;;;6.94;45.46;98673.50;10509328;28;20231;-73
2023/04/15 05:10:50;;;;;;;5.33;3.87;;;;;;;6.76;45.55;98662.44;10518126;28;20230;-73
2023/04/15 05:15:52;;;;;;;6.60;3.83;;;;;;;6.81;45.08;98668.03;10508404;28;20658;-73
2023/04/15 05:20:54;;;;;;;6.87;3.90;;;;;;;6.03;45.92;98641.03;10513787;28;20325;-73
2023/04/15 05:25:56;;;;;;;5.07;3.80;;;;;;;7.29;44.82;98681.63;10512080;28;20783;-73
2023/04/15 05:30:57;;;;;;;5.83;3.80;;;;;;;8.24;43.83;98660.88;10510450;28;20227;-72
2023/04/15 05:35:59;;;;;;;6.00;3.77;;;;;;;9.55;42.16;98681.22;10513010;28;20234;-72
2023/04/15 05:41:01;;;;;;;5.50;3.27;;;;;;;9.31;42.73;98709.31;10491443;28;20233;-72
2023/04/15 05:46:03;;;;;;;5.60;4.13;;;;;;;9.56;42.13;98733.59;10512627;28;20237;-72
2023/04/15 05:51:05;;;;;;;7.20;3.93;;;;;;;9.54;42.37;98767.69;10513034;28;20222;-72
2023/04/15 05:56:07;;;;;;;4.70;3.83;;;;;;;9.75;41.55;98763.22;10504594;28;20778;-72
2023/04/15 06:01:08;;;;;;;7.03;3.53;;;;;;;7.44;44.78;98710.84;10512455;28;20226;-72
2023/04/15 06:06:10;;;;;;;5.63;3.50;;;;;;;9.14;43.26;98777.44;10507989;28;20331;-73
2023/04/15 06:11:12;;;;;;;6.20;3.40;;;;;;;8.73;43.85;98788.94;10509281;28;20257;-72
2023/04/15 06:16:13;;;;;;;5.57;3.87;;;;;;;9.29;44.02;98764.75;10513001;28;20226;-70
2023/04/15 06:21:15;;;;;;;5.53;3.73;;;;;;;8.74;44.55;98806.56;10512544;28;20277;-69
2023/04/15 06:26:17;;;;;;;5.17;3.40;;;;;;;7.50;46.01;98794.44;10511303;28;20280;-73
2023/04/15 06:31:18;;;;;;;7.33;4.33;;;;;;;6.36;48.62;98704.41;10513034;28;20608;-74
2023/04/15 06:36:20;;;;;;;4.37;3.90;;;;;;;7.93;46.09;98773.16;10510812;28;20862;-73
2023/04/15 06:41:22;;;;;;;7.60;4.23;;;;;;;7.11;47.20;98777.03;10508110;28;20299;-73
2023/04/15 06:46:24;;;;;;;8.47;4.27;;;;;;;7.36;47.29;98790.81;10510426;28;20234;-73
2023/04/15 06:51:26;;;;;;;6.87;3.70;;;;;;;7.75;46.97;98805.56;10512177;28;20241;-74
2023/04/15 06:56:28;;;;;;;5.30;4.50;;;;;;;8.36;45.91;98756.28;10512938;28;21561;-70
2023/04/15 07:01:30;;;;;;;5.20;3.93;;;;;;;8.51;45.35;98772.19;10504584;28;20238;-70
2023/04/15 07:06:32;;;;;;;5.97;3.60;;;;;;;10.37;43.10;98760.38;10513605;28;20239;-72
2023/04/15 07:11:35;;;;;;;5.13;3.70;;;;;;;9.77;44.27;98758.50;10489064;28;20227;-69
2023/04/15 07:16:36;;;;;;;5.17;3.67;;;;;;;9.22;43.74;98807.44;10500821;28;20237;-70
2023/04/15 07:21:38;;;;;;;4.10;3.67;;;;;;;10.22;42.84;98757.91;10508479;28;20226;-70
2023/04/15 07:26:43;;;;;;;3.87;3.23;;;;;;;9.66;45.06;98775.94;10517091;28;20259;-71
2023/04/15 07:31:45;;;;;;;7.17;3.57;;;;;;;10.37;43.17;98761.19;10514999;28;20612;-70
2023/04/15 07:36:50;;;;;;;4.27;3.40;;;;;;;9.20;45.02;98848.72;10524026;28;20240;-70
2023/04/15 07:41:52;;;;;;;6.40;3.70;;;;;;;9.47;44.99;98782.09;10516759;28;20865;-76
2023/04/15 07:46:54;;;;;;;8.50;4.00;;;;;;;9.15;45.70;98857.31;10511757;28;20231;-76
2023/04/15 07:51:56;;;;;;;9.40;3.70;;;;;;;8.75;45.36;98827.72;10517360;28;20906;-76
2023/04/15 07:56:58;;;;;;;4.23;3.40;;;;;;;9.63;44.99;98823.59;10517502;28;20237;-76
2023/04/15 08:02:00;;;;;;;3.20;2.90;;;;;;;11.55;43.07;98835.16;10524805;28;20251;-76
2023/04/15 08:07:02;;;;;;;5.50;3.20;;;;;;;9.22;45.06;98817.31;10518854;28;20230;-76
2023/04/15 08:12:05;;;;;;;3.70;3.30;;;;;;;10.64;44.23;98804.75;10523030;28;20664;-76
2023/04/15 08:17:07;;;;;;;6.27;3.87;;;;;;;10.27;44.84;98855.19;10513885;28;20231;-77
2023/04/15 08:22:10;;;;;;;3.37;2.77;;;;;;;11.31;43.31;98831.38;10516330;28;20237;-77
2023/04/15 08:27:19;;;;;;;3.43;2.83;;;;;;;10.77;43.55;98819.19;10511601;28;20351;-77
2023/04/15 08:32:21;;;;;;;3.63;2.97;;;;;;;11.91;42.21;98836.44;10514689;28;20235;-76
2023/04/15 08:37:23;;;;;;;5.83;2.90;;;;;;;11.04;41.76;98809.22;10514983;28;20643;-76
2023/04/15 08:42:34;;;;;;;6.43;3.13;;;;;;;11.37;40.78;98846.59;10512179;28;20235;-77
2023/04/15 08:47:37;;;;;;;5.67;3.67;;;;;;;11.50;42.07;98818.09;10523245;28;20226;-78
2023/04/15 08:52:39;;;;;;;9.60;3.77;;;;;;;11.89;42.13;98829.66;10519088;28;20230;-77
2023/04/15 08:57:41;;;;;;;4.83;3.90;;;;;;;11.30;42.30;98823.53;10480576;28;20226;-76
2023/04/15 09:02:42;;;;;;;7.77;3.10;;;;;;;11.45;41.63;98803.47;10516193;28;20273;-76
2023/04/15 09:07:44;;;;;;;5.03;3.33;;;;;;;13.26;41.20;98859.19;10521472;28;20235;-81
2023/04/15 09:12:46;;;;;;;7.03;3.30;;;;;;;12.81;41.54;98804.97;10525813;28;20298;-76
2023/04/15 09:17:48;;;;;;;5.80;3.10;;;;;;;13.26;42.18;98831.50;10518059;28;20238;-78
2023/04/15 09:22:50;;;;;;;5.23;3.20;;;;;;;11.95;42.03;98789.38;10516608;28;20206;-80
2023/04/15 09:27:57;;;;;;;4.20;3.17;;;;;;;11.04;44.69;98854.75;10515918;28;20234;-79
2023/04/15 09:33:03;;;;;;;4.27;2.87;;;;;;;13.40;40.87;98834.88;10494809;28;20258;-76
2023/04/15 09:38:06;;;;;;;8.47;3.00;;;;;;;12.98;41.29;98806.00;10513091;28;20322;-76
2023/04/15 09:43:11;;;;;;;4.43;3.20;;;;;;;12.77;40.84;98758.13;10497521;28;20255;-76
2023/04/15 09:48:27;;;;;;;4.87;3.07;;;;;;;13.59;40.45;98814.16;10516039;28;20238;-76
2023/04/15 09:53:33;;;;;;;4.17;2.73;;;;;;;11.68;40.26;98802.16;10505156;28;20673;-73
2023/04/15 09:58:37;;;;;;;23.63;3.90;;;;;;;14.47;38.40;98830.63;10515482;28;20237;-75
2023/04/15 10:03:41;;;;;;;18.57;3.37;;;;;;;14.01;40.20;98787.28;10506579;28;20230;-73
2023/04/15 10:08:43;;;;;;;7.73;3.63;;;;;;;14.19;40.55;98763.00;10509927;28;20242;-75
2023/04/15 10:13:46;;;;;;;6.07;2.80;;;;;;;13.79;39.94;98743.97;10505871;28;20236;-72
2023/04/15 10:18:54;;;;;;;150.13;13.07;;;;;;;14.77;40.13;98799.00;10495328;28;20234;-74
2023/04/15 10:23:57;;;;;;;69.17;7.67;;;;;;;14.39;40.26;98773.41;10511118;28;20231;-74
2023/04/15 10:29:00;;;;;;;114.23;12.73;;;;;;;15.03;39.84;98790.69;10514522;28;20404;-75
2023/04/15 10:34:05;;;;;;;26.90;4.37;;;;;;;15.12;39.67;98763.13;10486517;28;20745;-73
2023/04/15 10:39:32;;;;;;;15.37;3.50;;;;;;;13.35;39.02;98721.91;10515420;28;20878;-77
2023/04/15 10:44:37;;;;;;;78.70;7.43;;;;;;;14.28;38.93;98736.56;10503115;28;21132;-74
2023/04/15 10:49:44;;;;;;;4.77;2.40;;;;;;;13.81;39.40;98755.31;10512540;28;20226;-75
2023/04/15 10:54:46;;;;;;;7.60;3.07;;;;;;;13.86;39.10;98739.31;10514964;28;20241;-74
2023/04/15 10:59:57;;;;;;;3.53;2.67;;;;;;;14.89;38.72;98771.28;10515679;28;20238;-74
2023/04/15 11:07:04;;;;;;;5.00;3.33;;;;;;;13.67;39.96;98835.34;10414666;27;20825;-74
2023/04/15 11:12:08;;;;;;;5.43;3.20;;;;;;;12.28;41.03;98811.59;10384577;28;20229;-77
2023/04/15 11:17:10;;;;;;;4.23;2.47;;;;;;;12.77;41.61;98852.88;10357150;28;20337;-75
2023/04/15 11:22:12;;;;;;;5.43;2.90;;;;;;;12.64;39.73;98861.09;10349707;28;20608;-76
2023/04/15 11:27:23;;;;;;;21.27;4.03;;;;;;;11.44;40.81;98844.69;10420925;28;20592;-76
2023/04/15 11:32:24;;;;;;;13.20;3.53;;;;;;;12.86;39.60;98880.28;10481256;22;20249;-38
2023/04/15 11:37:31;;;;;;;153.20;14.23;;;;;;;14.20;39.68;98857.97;10511459;28;20628;-38
2023/04/15 11:42:32;;;;;;;6.10;3.33;;;;;;;13.75;38.71;98842.25;10514895;28;20242;-39
2023/04/15 11:47:49;;;;;;;3.53;2.40;;;;;;;13.91;37.94;98851.56;10510497;28;20851;-39
2023/04/15 11:53:03;;;;;;;5.03;2.70;;;;;;;14.16;37.09;98851.44;10514196;28;20567;-37
2023/04/15 11:58:15;;;;;;;8.17;2.70;;;;;;;13.73;36.00;98868.56;10513124;28;20230;-39
2023/04/15 12:03:26;;;;;;;4.83;2.57;;;;;;;13.92;37.15;98839.75;10494070;28;20231;-39
2023/04/15 12:08:47;;;;;;;4.53;2.27;;;;;;;14.14;38.15;98845.47;10514899;28;20280;-39
2023/04/15 12:13:50;;;;;;;3.40;2.40;;;;;;;13.78;36.33;98825.69;10503462;28;20224;-37
2023/04/15 12:18:57;;;;;;;4.70;2.43;;;;;;;14.00;36.94;98836.72;10483631;28;20326;-37
2023/04/15 12:24:03;;;;;;;4.53;3.07;;;;;;;14.47;37.76;98871.81;10480256;28;20266;-39
2023/04/15 12:29:07;;;;;;;5.07;3.23;;;;;;;15.07;36.41;98888.84;10483407;28;20614;-39
2023/04/15 12:34:08;;;;;;;3.30;2.77;;;;;;;13.58;37.47;98864.41;10477685;28;20231;-38
2023/04/15 12:39:10;;;;;;;6.07;3.27;;;;;;;12.91;38.99;98867.03;10483735;28;20246;-40
2023/04/15 12:44:12;;;;;;;3.93;2.87;;;;;;;13.45;37.77;98892.28;10482979;28;20600;-39
2023/04/15 12:49:14;;;;;;;5.80;3.07;;;;;;;13.27;37.51;98903.81;10482358;28;20262;-39
2023/04/15 12:54:17;;;;;;;6.73;2.67;;;;;;;13.09;37.46;98887.69;10482560;28;20502;-39
2023/04/15 12:59:19;;;;;;;3.93;2.63;;;;;;;13.43;35.91;98933.84;10472012;28;20230;-39
2023/04/15 13:04:21;;;;;;;3.87;2.80;;;;;;;15.53;36.19;98873.63;10481198;28;20235;-39
2023/04/15 13:09:24;;;;;;;7.03;3.27;;;;;;;15.67;34.28;98887.66;10478094;28;20223;-39
2023/04/15 13:14:25;;;;;;;7.80;3.50;;;;;;;15.26;34.11;98832.94;10479157;28;20453;-40
2023/04/15 13:19:27;;;;;;;4.53;2.37;;;;;;;13.99;35.15;98867.38;10457729;28;20247;-40
2023/04/15 13:24:29;;;;;;;4.10;2.50;;;;;;;13.83;34.62;98899.25;10479185;28;20239;-40
2023/04/15 13:29:31;;;;;;;4.70;2.63;;;;;;;15.06;35.88;98838.72;10478948;28;20596;-39
2023/04/15 13:34:33;;;;;;;5.47;3.17;;;;;;;14.71;35.86;98804.53;10477365;28;20235;-38
2023/04/15 13:39:35;;;;;;;5.30;2.70;;;;;;;13.74;36.74;98871.03;10480406;28;20243;-39
2023/04/15 13:44:37;;;;;;;5.17;2.87;;;;;;;15.13;35.51;98877.09;10479511;28;20227;-40
2023/04/15 13:49:39;;;;;;;5.07;3.03;;;;;;;14.12;36.19;98875.28;10481223;28;20657;-40
2023/04/15 13:54:41;;;;;;;4.40;3.07;;;;;;;14.84;34.51;98877.03;10477918;28;20775;-40
2023/04/15 13:59:43;;;;;;;7.27;2.87;;;;;;;14.12;35.97;98843.00;10474264;28;20280;-39
2023/04/15 14:04:44;;;;;;;3.30;2.73;;;;;;;14.27;34.32;98860.56;10478425;28;20230;-39
2023/04/15 14:09:47;;;;;;;3.70;3.03;;;;;;;15.25;35.65;98893.25;10480986;28;20700;-39
2023/04/15 14:14:48;;;;;;;3.80;2.67;;;;;;;14.11;36.82;98881.72;10475916;28;20234;-39
2023/04/15 14:19:50;;;;;;;6.53;4.03;;;;;;;13.26;38.98;98886.06;10453990;28;20335;-40
2023/04/15 14:24:53;;;;;;;4.87;4.30;;;;;;;13.81;38.92;98879.00;10477197;28;20247;-39
2023/04/15 14:29:56;;;;;;;4.20;3.47;;;;;;;13.33;39.60;98866.38;10478996;28;20239;-39
2023/04/15 14:34:58;;;;;;;4.60;3.10;;;;;;;13.69;38.31;98934.59;10473463;28;20243;-39
2023/04/15 14:40:00;;;;;;;4.20;3.40;;;;;;;14.53;38.14;98889.75;10474458;28;20242;-39
2023/04/15 14:45:01;;;;;;;3.40;2.90;;;;;;;13.34;39.08;98889.50;10477843;28;20243;-39
2023/04/15 14:50:03;;;;;;;4.93;2.97;;;;;;;13.59;38.87;98910.94;10475361;28;20259;-39
2023/04/15 14:55:09;;;;;;;4.77;2.60;;;;;;;13.28;38.43;98883.19;10476248;28;20234;-39
2023/04/15 15:00:11;;;;;;;3.93;3.40;;;;;;;14.32;37.71;98957.56;10474458;28;20262;-39
2023/04/15 15:05:16;;;;;;;4.87;3.13;;;;;;;13.52;38.63;98937.88;10473730;28;20258;-39
2023/04/15 15:10:18;;;;;;;3.27;2.43;;;;;;;15.22;37.41;98923.38;10478039;28;20789;-39
2023/04/15 15:15:40;;;;;;;3.53;2.40;;;;;;;15.10;37.17;98959.25;10477728;28;20238;-39
2023/04/15 15:20:42;;;;;;;3.50;2.50;;;;;;;15.99;36.10;98924.97;10475227;28;20297;-39
2023/04/15 15:25:45;;;;;;;5.63;2.50;;;;;;;14.73;36.89;98947.84;10477843;28;20239;-39
2023/04/15 15:30:47;;;;;;;3.53;2.63;;;;;;;15.13;35.49;98976.81;10476837;28;20242;-39
2023/04/15 15:35:49;;;;;;;2.73;2.23;;;;;;;14.11;36.91;99007.34;10477268;28;20238;-40
2023/04/15 15:40:51;;;;;;;3.87;2.00;;;;;;;14.89;36.25;98959.81;10475795;28;20618;-39
2023/04/15 15:45:54;;;;;;;3.00;1.80;;;;;;;12.47;37.21;98901.03;10473514;28;20231;-39
2023/04/15 15:50:56;;;;;;;3.87;1.77;;;;;;;14.12;36.03;99041.25;10474321;28;20377;-40
2023/04/15 15:55:57;;;;;;;1.73;1.63;;;;;;;12.05;37.10;98938.25;10476808;28;20628;-40
2023/04/15 16:00:59;;;;;;;2.57;1.60;;;;;;;13.67;36.55;99064.66;10483159;28;20751;-39
2023/04/15 16:06:03;;;;;;;2.10;1.87;;;;;;;13.60;36.68;99085.44;10479454;28;20655;-39
2023/04/15 16:11:05;;;;;;;3.33;1.70;;;;;;;12.47;36.89;99032.53;10476545;28;20704;-39
2023/04/15 16:16:06;;;;;;;1.60;1.50;;;;;;;13.10;36.60;99085.41;10481749;28;20313;-39
2023/04/15 16:21:08;;;;;;;22.03;3.07;;;;;;;10.66;40.75;98922.28;10478683;28;20242;-39
2023/04/15 16:26:10;;;;;;;1.60;1.50;;;;;;;10.91;43.02;99012.69;10481132;28;20353;-39
2023/04/15 16:31:12;;;;;;;2.70;1.77;;;;;;;10.69;44.58;99035.06;10479560;28;20235;-39
2023/04/15 16:36:14;;;;;;;1.90;1.70;;;;;;;10.66;45.16;99046.19;10482126;28;20391;-39
2023/04/15 16:41:17;;;;;;;2.87;1.80;;;;;;;11.25;44.65;99126.78;10481113;28;20311;-40
2023/04/15 16:46:19;;;;;;;2.03;1.83;;;;;;;11.75;45.41;99154.03;10480586;28;20236;-39
2023/04/15 16:51:20;;;;;;;1.83;1.73;;;;;;;13.11;44.35;99109.38;10482539;28;20254;-39
2023/04/15 16:56:22;;;;;;;2.03;1.93;;;;;;;11.39;46.02;99155.25;10482043;28;20235;-39
2023/04/15 17:01:24;;;;;;;2.10;2.00;;;;;;;11.54;45.84;99133.63;10480012;28;20326;-39
2023/04/15 17:06:26;;;;;;;2.13;2.03;;;;;;;11.40;47.12;99167.59;10485207;28;20238;-39
2023/04/15 17:11:28;;;;;;;1.87;1.77;;;;;;;10.47;49.04;99128.03;10481613;28;20227;-39
2023/04/15 17:16:30;;;;;;;1.83;1.73;;;;;;;11.99;48.28;99170.50;10483008;28;20779;-39
2023/04/15 17:21:33;;;;;;;1.80;1.70;;;;;;;10.73;50.67;99189.84;10482281;28;20231;-39
2023/04/15 17:26:35;;;;;;;1.93;1.77;;;;;;;11.16;50.55;99224.44;10478607;28;20277;-39
2023/04/15 17:31:37;;;;;;;3.00;2.20;;;;;;;10.37;51.46;99204.31;10481696;28;20243;-39
2023/04/15 17:36:38;;;;;;;2.17;1.93;;;;;;;10.93;52.10;99255.03;10480707;28;20226;-39
2023/04/15 17:41:40;;;;;;;2.03;1.93;;;;;;;11.31;50.96;99237.66;10482063;28;20609;-38
2023/04/15 17:46:42;;;;;;;2.50;2.30;;;;;;;10.92;51.86;99258.75;10465783;28;20241;-38
2023/04/15 17:51:45;;;;;;;2.30;2.20;;;;;;;11.59;51.85;99291.06;10481428;28;20261;-38
2023/04/15 17:56:48;;;;;;;2.50;2.30;;;;;;;10.63;53.64;99286.56;10481571;28;20235;-38
2023/04/15 18:01:49;;;;;;;2.10;2.00;;;;;;;12.24;50.69;99264.53;10481125;28;20338;-38
2023/04/15 18:06:51;;;;;;;2.50;2.30;;;;;;;11.36;52.00;99315.56;10477134;28;20258;-38
2023/04/15 18:11:53;;;;;;;3.80;2.33;;;;;;;11.90;51.25;99293.22;10477746;28;20231;-38
2023/04/15 18:16:55;;;;;;;2.40;2.20;;;;;;;10.59;52.89;99278.09;10477980;28;20580;-38
2023/04/15 18:21:58;;;;;;;2.90;2.40;;;;;;;12.44;50.67;99277.13;10478819;28;20227;-38
2023/04/15 18:27:01;;;;;;;2.53;2.33;;;;;;;12.98;49.25;99320.78;10478718;28;20730;-37
2023/04/15 18:32:02;;;;;;;2.90;2.70;;;;;;;13.49;49.00;99333.41;10477329;28;20239;-38
2023/04/15 18:37:05;;;;;;;2.93;2.63;;;;;;;12.83;49.19;99316.50;10478458;28;20235;-38
2023/04/15 18:42:06;;;;;;;3.73;3.37;;;;;;;13.26;48.12;99310.56;10478286;28;20318;-38
2023/04/15 18:47:08;;;;;;;3.00;2.80;;;;;;;13.21;48.68;99358.75;10475802;28;20231;-38
2023/04/15 18:52:10;;;;;;;2.80;2.60;;;;;;;13.80;47.22;99329.09;10476093;28;20401;-38
2023/04/15 18:57:12;;;;;;;2.90;2.70;;;;;;;15.05;46.06;99411.78;10479340;28;20250;-38
2023/04/15 19:02:17;;;;;;;4.00;3.60;;;;;;;15.30;45.03;99384.75;10475582;28;20231;-39
2023/04/15 19:07:19;;;;;;;3.03;2.83;;;;;;;14.39;46.42;99346.69;10477958;28;20593;-38
2023/04/15 19:12:20;;;;;;;3.50;3.20;;;;;;;12.44;50.20;99487.25;10474321;28;20238;-38
2023/04/15 19:17:22;;;;;;;3.10;2.90;;;;;;;12.28;49.98;99485.78;10475527;28;20239;-38
2023/04/15 19:22:24;;;;;;;3.97;3.13;;;;;;;10.59;52.27;99393.13;10478573;28;20340;-38
2023/04/15 19:27:26;;;;;;;3.50;3.20;;;;;;;11.97;49.87;99420.06;10483381;28;20234;-38
2023/04/15 19:32:27;;;;;;;3.80;3.50;;;;;;;11.55;51.10;99478.25;10485186;28;20592;-38
2023/04/15 19:37:29;;;;;;;3.70;3.40;;;;;;;11.69;50.63;99476.47;10485514;28;20894;-39
2023/04/15 19:42:31;;;;;;;4.07;3.77;;;;;;;11.59;50.93;99474.16;10485175;28;20354;-38
2023/04/15 19:47:33;;;;;;;4.73;3.73;;;;;;;12.15;50.19;99451.69;10483888;28;20230;-38
2023/04/15 19:52:35;;;;;;;4.90;4.50;;;;;;;14.61;46.40;99502.47;10485152;28;20227;-39
2023/04/15 19:57:37;;;;;;;4.00;3.70;;;;;;;15.46;44.88;99528.91;10483127;28;20520;-38
2023/04/15 20:02:38;;;;;;;4.00;3.70;;;;;;;12.22;48.81;99426.75;10485545;28;20230;-38
2023/04/15 20:07:41;;;;;;;4.57;4.17;;;;;;;14.61;46.19;99493.56;10484544;28;20246;-39
2023/04/15 20:12:43;;;;;;;4.23;3.83;;;;;;;14.46;46.27;99486.63;10484679;28;20208;-39
2023/04/15 20:17:53;;;;;;;4.27;3.87;;;;;;;14.06;46.93;99494.09;10482921;28;20662;-38
2023/04/15 20:22:54;;;;;;;6.80;6.10;;;;;;;14.00;46.83;99495.75;10481927;28;20434;-39
2023/04/15 20:27:57;;;;;;;5.40;4.90;;;;;;;14.02;46.58;99499.88;10483782;28;20231;-38
2023/04/15 20:33:01;;;;;;;5.60;5.10;;;;;;;13.52;48.10;99526.53;10482165;28;20929;-38
2023/04/15 20:38:03;;;;;;;6.00;5.30;;;;;;;13.70;46.98;99479.31;10483147;28;20246;-39
2023/04/15 20:43:05;;;;;;;6.43;5.83;;;;;;;12.62;48.66;99507.31;10482380;28;20235;-38
2023/04/15 20:48:06;;;;;;;6.83;6.10;;;;;;;13.60;47.41;99504.81;10481115;28;20648;-39
2023/04/15 20:53:08;;;;;;;7.60;6.20;;;;;;;14.21;46.90;99554.66;10466988;28;20459;-38
2023/04/15 20:58:10;;;;;;;8.23;7.37;;;;;;;12.35;49.98;99561.75;10479248;28;20572;-38
2023/04/15 21:03:12;;;;;;;8.03;7.23;;;;;;;13.28;47.83;99519.97;10481737;28;20243;-39
2023/04/15 21:08:14;;;;;;;8.40;7.60;;;;;;;12.38;48.44;99496.09;10479552;28;20317;-39
2023/04/15 21:13:16;;;;;;;9.60;8.60;;;;;;;11.15;51.19;99488.69;10479639;28;20231;-39
2023/04/15 21:18:19;;;;;;;10.07;9.00;;;;;;;10.93;52.17;99529.94;10479326;28;20237;-39
2023/04/15 21:23:21;;;;;;;10.97;9.87;;;;;;;11.70;50.69;99550.50;10479323;28;20303;-38
2023/04/15 21:28:22;;;;;;;11.63;10.43;;;;;;;12.09;50.35;99580.41;10454278;28;20242;-38
2023/04/15 21:33:25;;;;;;;12.13;10.93;;;;;;;12.15;49.80;99580.44;10479961;28;20232;-38
2023/04/15 21:38:26;;;;;;;12.77;11.47;;;;;;;12.09;50.78;99613.41;10481470;28;20245;-39
2023/04/15 21:43:28;;;;;;;12.80;11.50;;;;;;;12.12;50.02;99562.06;10478178;28;20234;-38
2023/04/15 21:48:30;;;;;;;13.67;12.33;;;;;;;12.43;49.33;99573.31;10477460;28;20326;-39
2023/04/15 21:53:32;;;;;;;13.93;12.53;;;;;;;12.78;49.47;99625.06;10478285;28;20739;-38
2023/04/15 21:58:34;;;;;;;12.63;11.33;;;;;;;13.72;47.69;99660.94;10480641;28;20696;-38
2023/04/15 22:03:35;;;;;;;13.03;11.80;;;;;;;11.43;51.09;99600.41;10460789;28;20712;-38
2023/04/15 22:08:37;;;;;;;13.53;12.13;;;;;;;12.92;49.17;99636.66;10477773;28;20235;-38
2023/04/15 22:13:53;;;;;;;13.60;12.20;;;;;;;12.18;50.57;99622.13;10474674;28;20248;-38
2023/04/15 22:18:55;;;;;;;17.20;15.23;;;;;;;11.96;50.42;99624.91;10473932;28;20232;-39
2023/04/15 22:23:57;;;;;;;14.60;13.20;;;;;;;11.58;50.76;99609.16;10476342;28;20234;-38
2023/04/15 22:29:18;;;;;;;14.57;12.90;;;;;;;13.76;47.51;99713.25;10479337;28;20600;-38
2023/04/15 22:34:20;;;;;;;12.90;11.60;;;;;;;13.02;48.93;99688.13;10476079;28;20229;-39
2023/04/15 22:39:22;;;;;;;13.23;11.97;;;;;;;11.36;51.41;99648.56;10479050;28;20449;-39
2023/04/15 22:44:24;;;;;;;13.73;12.37;;;;;;;12.76;48.96;99680.81;10476552;28;20231;-38
2023/04/15 22:49:26;;;;;;;12.97;11.67;;;;;;;11.17;51.55;99668.81;10475508;28;20742;-39
2023/04/15 22:54:27;;;;;;;12.80;11.50;;;;;;;10.24;53.28;99643.59;10477229;28;20227;-38
2023/04/15 22:59:29;;;;;;;12.30;11.00;;;;;;;10.27;52.86;99638.69;10478165;28;20900;-39
2023/04/15 23:04:31;;;;;;;12.40;11.10;;;;;;;11.31;51.61;99687.69;10476503;28;20223;-38
2023/04/15 23:09:33;;;;;;;12.50;11.20;;;;;;;10.60;52.03;99649.00;10474330;28;20215;-38
2023/04/15 23:14:34;;;;;;;11.33;10.23;;;;;;;11.55;51.32;99727.47;10476609;28;20226;-37
2023/04/15 23:19:36;;;;;;;11.57;10.33;;;;;;;9.12;54.77;99588.25;10477088;28;20223;-38
2023/04/15 23:24:38;;;;;;;12.63;11.30;;;;;;;9.92;53.52;99691.06;10475856;28;20231;-38
2023/04/15 23:29:39;;;;;;;13.47;10.77;;;;;;;10.45;53.55;99733.81;10473806;28;20207;-38
2023/04/15 23:34:41;;;;;;;13.67;12.33;;;;;;;9.36;55.01;99678.00;10474704;28;20233;-38